Terminal Aerodrome Forecast
Issued by NWS

Home | Current Version | Previous Version | Graphics & Text | Print | Product List | Glossary On
Versions: 1 2 3 4 5 6 7 8 9 10 11 12 13 14 15 16 17 18 19 20 21 22 23 24 25 26 27 28 29 30 31 32 33 34
000
FTUS43 KLOT 211603 AAB
TAFMDW
TAF AMD
KMDW 211603Z 2116/2212 15007KT P6SM SCT060 BKN100
     FM220300 17006KT P6SM VCTS SCT040 BKN100CB
      TEMPO 2204/2205 29020G30KT 1SM TSRA BKN040CB
     FM220500 19008KT 6SM -SHRA VCTS BKN040 BKN080CB
      TEMPO 2205/2209 2SM TSRA SCT015 BKN035CB=

USA.gov is the U.S. government's official web portal to all federal, state and local government web resources and services.